sensor_id;sensor_type;location;lat;lon;timestamp;P1;durP1;ratioP1;P2;durP2;ratioP2
27313;SDS011;14800;48.174;9.798;2024-03-22T00:00:05;22.50;;;13.68;;
27313;SDS011;14800;48.174;9.798;2024-03-22T00:02:31;20.90;;;13.98;;
27313;SDS011;14800;48.174;9.798;2024-03-22T00:04:56;20.25;;;14.23;;
27313;SDS011;14800;48.174;9.798;2024-03-22T00:07:22;19.10;;;13.23;;
27313;SDS011;14800;48.174;9.798;2024-03-22T00:09:47;20.10;;;13.77;;
27313;SDS011;14800;48.174;9.798;2024-03-22T00:12:13;18.58;;;13.43;;
27313;SDS011;14800;48.174;9.798;2024-03-22T00:14:39;20.70;;;12.60;;
27313;SDS011;14800;48.174;9.798;2024-03-22T00:17:04;17.20;;;12.00;;
27313;SDS011;14800;48.174;9.798;2024-03-22T00:19:30;18.30;;;12.10;;
27313;SDS011;14800;48.174;9.798;2024-03-22T00:21:55;20.70;;;12.18;;
27313;SDS011;14800;48.174;9.798;2024-03-22T00:24:21;20.85;;;12.60;;
27313;SDS011;14800;48.174;9.798;2024-03-22T00:26:46;18.42;;;11.02;;
27313;SDS011;14800;48.174;9.798;2024-03-22T00:29:12;19.55;;;12.00;;
27313;SDS011;14800;48.174;9.798;2024-03-22T00:31:37;15.07;;;11.10;;
27313;SDS011;14800;48.174;9.798;2024-03-22T00:34:03;17.75;;;11.60;;
27313;SDS011;14800;48.174;9.798;2024-03-22T00:36:29;18.10;;;11.98;;
27313;SDS011;14800;48.174;9.798;2024-03-22T00:38:54;19.13;;;11.32;;
27313;SDS011;14800;48.174;9.798;2024-03-22T00:41:20;14.07;;;9.88;;
27313;SDS011;14800;48.174;9.798;2024-03-22T00:43:45;12.82;;;9.05;;
27313;SDS011;14800;48.174;9.798;2024-03-22T00:46:11;14.25;;;9.38;;
27313;SDS011;14800;48.174;9.798;2024-03-22T00:48:36;12.93;;;9.20;;
27313;SDS011;14800;48.174;9.798;2024-03-22T00:51:02;12.80;;;9.05;;
27313;SDS011;14800;48.174;9.798;2024-03-22T00:53:28;12.57;;;8.90;;
27313;SDS011;14800;48.174;9.798;2024-03-22T00:55:55;12.02;;;8.85;;
27313;SDS011;14800;48.174;9.798;2024-03-22T00:58:21;13.88;;;8.88;;
27313;SDS011;14800;48.174;9.798;2024-03-22T01:00:47;11.98;;;8.82;;
27313;SDS011;14800;48.174;9.798;2024-03-22T01:03:12;11.32;;;8.23;;
27313;SDS011;14800;48.174;9.798;2024-03-22T01:05:38;11.20;;;8.15;;
27313;SDS011;14800;48.174;9.798;2024-03-22T01:08:05;12.57;;;8.82;;
27313;SDS011;14800;48.174;9.798;2024-03-22T01:10:32;12.52;;;8.27;;
27313;SDS011;14800;48.174;9.798;2024-03-22T01:12:58;10.40;;;7.85;;
27313;SDS011;14800;48.174;9.798;2024-03-22T01:15:24;11.80;;;7.65;;
27313;SDS011;14800;48.174;9.798;2024-03-22T01:17:50;11.38;;;8.20;;
27313;SDS011;14800;48.174;9.798;2024-03-22T01:20:17;10.27;;;7.63;;
27313;SDS011;14800;48.174;9.798;2024-03-22T01:22:42;11.88;;;7.68;;
27313;SDS011;14800;48.174;9.798;2024-03-22T01:25:08;10.60;;;7.00;;
27313;SDS011;14800;48.174;9.798;2024-03-22T01:27:34;10.18;;;7.22;;
27313;SDS011;14800;48.174;9.798;2024-03-22T01:30:00;9.38;;;7.10;;
27313;SDS011;14800;48.174;9.798;2024-03-22T01:32:26;9.73;;;7.40;;
27313;SDS011;14800;48.174;9.798;2024-03-22T01:34:52;9.65;;;7.07;;
27313;SDS011;14800;48.174;9.798;2024-03-22T01:37:17;12.13;;;7.75;;
27313;SDS011;14800;48.174;9.798;2024-03-22T01:39:43;9.02;;;7.15;;
27313;SDS011;14800;48.174;9.798;2024-03-22T01:42:08;9.98;;;7.88;;
27313;SDS011;14800;48.174;9.798;2024-03-22T01:44:34;9.82;;;7.57;;
27313;SDS011;14800;48.174;9.798;2024-03-22T01:46:59;9.13;;;7.40;;
27313;SDS011;14800;48.174;9.798;2024-03-22T01:49:25;10.43;;;7.45;;
27313;SDS011;14800;48.174;9.798;2024-03-22T01:51:52;9.57;;;7.60;;
27313;SDS011;14800;48.174;9.798;2024-03-22T01:54:18;9.88;;;7.57;;
27313;SDS011;14800;48.174;9.798;2024-03-22T01:56:45;10.25;;;7.65;;
27313;SDS011;14800;48.174;9.798;2024-03-22T01:59:12;9.88;;;8.02;;
27313;SDS011;14800;48.174;9.798;2024-03-22T02:01:38;12.30;;;7.68;;
27313;SDS011;14800;48.174;9.798;2024-03-22T02:04:04;11.48;;;8.20;;
27313;SDS011;14800;48.174;9.798;2024-03-22T02:06:30;10.73;;;7.95;;
27313;SDS011;14800;48.174;9.798;2024-03-22T02:08:56;13.30;;;8.35;;
27313;SDS011;14800;48.174;9.798;2024-03-22T02:11:22;10.13;;;8.10;;
27313;SDS011;14800;48.174;9.798;2024-03-22T02:13:48;9.07;;;7.85;;
27313;SDS011;14800;48.174;9.798;2024-03-22T02:16:14;11.00;;;8.40;;
27313;SDS011;14800;48.174;9.798;2024-03-22T02:18:40;10.25;;;7.90;;
27313;SDS011;14800;48.174;9.798;2024-03-22T02:21:05;9.30;;;7.93;;
27313;SDS011;14800;48.174;9.798;2024-03-22T02:23:34;11.75;;;8.57;;
27313;SDS011;14800;48.174;9.798;2024-03-22T02:26:02;11.75;;;7.88;;
27313;SDS011;14800;48.174;9.798;2024-03-22T02:28:28;11.07;;;7.95;;
27313;SDS011;14800;48.174;9.798;2024-03-22T02:30:55;10.93;;;8.48;;
27313;SDS011;14800;48.174;9.798;2024-03-22T02:33:20;11.63;;;7.78;;
27313;SDS011;14800;48.174;9.798;2024-03-22T02:35:46;12.85;;;8.90;;
27313;SDS011;14800;48.174;9.798;2024-03-22T02:38:12;13.57;;;8.95;;
27313;SDS011;14800;48.174;9.798;2024-03-22T02:40:38;12.23;;;9.43;;
27313;SDS011;14800;48.174;9.798;2024-03-22T02:43:04;13.45;;;8.73;;
27313;SDS011;14800;48.174;9.798;2024-03-22T02:45:30;12.25;;;9.05;;
27313;SDS011;14800;48.174;9.798;2024-03-22T02:47:56;13.63;;;9.27;;
27313;SDS011;14800;48.174;9.798;2024-03-22T02:50:22;14.88;;;9.48;;
27313;SDS011;14800;48.174;9.798;2024-03-22T02:52:50;13.73;;;9.32;;
27313;SDS011;14800;48.174;9.798;2024-03-22T02:55:16;16.02;;;10.30;;
27313;SDS011;14800;48.174;9.798;2024-03-22T02:57:42;14.93;;;9.23;;
27313;SDS011;14800;48.174;9.798;2024-03-22T03:00:08;14.43;;;9.82;;
27313;SDS011;14800;48.174;9.798;2024-03-22T03:02:34;13.73;;;10.20;;
27313;SDS011;14800;48.174;9.798;2024-03-22T03:04:59;14.82;;;10.20;;
27313;SDS011;14800;48.174;9.798;2024-03-22T03:07:25;17.20;;;9.95;;
27313;SDS011;14800;48.174;9.798;2024-03-22T03:09:52;14.15;;;10.38;;
27313;SDS011;14800;48.174;9.798;2024-03-22T03:12:18;12.25;;;9.98;;
27313;SDS011;14800;48.174;9.798;2024-03-22T03:14:43;12.25;;;9.55;;
27313;SDS011;14800;48.174;9.798;2024-03-22T03:17:09;13.55;;;9.38;;
27313;SDS011;14800;48.174;9.798;2024-03-22T03:19:35;14.95;;;9.35;;
27313;SDS011;14800;48.174;9.798;2024-03-22T03:22:01;15.18;;;9.75;;
27313;SDS011;14800;48.174;9.798;2024-03-22T03:24:27;15.93;;;9.90;;
27313;SDS011;14800;48.174;9.798;2024-03-22T03:26:53;15.05;;;9.48;;
27313;SDS011;14800;48.174;9.798;2024-03-22T03:29:19;13.07;;;9.00;;
27313;SDS011;14800;48.174;9.798;2024-03-22T03:31:44;13.60;;;8.88;;
27313;SDS011;14800;48.174;9.798;2024-03-22T03:34:10;13.38;;;8.85;;
27313;SDS011;14800;48.174;9.798;2024-03-22T03:36:36;12.63;;;8.98;;
27313;SDS011;14800;48.174;9.798;2024-03-22T03:39:01;13.20;;;9.30;;
27313;SDS011;14800;48.174;9.798;2024-03-22T03:41:27;11.88;;;8.57;;
27313;SDS011;14800;48.174;9.798;2024-03-22T03:43:53;12.10;;;8.57;;
27313;SDS011;14800;48.174;9.798;2024-03-22T03:46:18;11.50;;;8.65;;
27313;SDS011;14800;48.174;9.798;2024-03-22T03:48:44;11.65;;;8.07;;
27313;SDS011;14800;48.174;9.798;2024-03-22T03:51:09;12.27;;;8.13;;
27313;SDS011;14800;48.174;9.798;2024-03-22T03:53:35;10.75;;;8.02;;
27313;SDS011;14800;48.174;9.798;2024-03-22T03:56:01;11.13;;;7.68;;
27313;SDS011;14800;48.174;9.798;2024-03-22T03:58:26;12.60;;;8.75;;
27313;SDS011;14800;48.174;9.798;2024-03-22T04:00:52;10.77;;;8.27;;
27313;SDS011;14800;48.174;9.798;2024-03-22T04:03:17;12.13;;;8.65;;
27313;SDS011;14800;48.174;9.798;2024-03-22T04:05:44;13.95;;;8.45;;
27313;SDS011;14800;48.174;9.798;2024-03-22T04:08:09;13.57;;;8.13;;
27313;SDS011;14800;48.174;9.798;2024-03-22T04:10:35;13.98;;;7.93;;
27313;SDS011;14800;48.174;9.798;2024-03-22T04:13:00;11.02;;;8.15;;
27313;SDS011;14800;48.174;9.798;2024-03-22T04:15:26;13.10;;;8.00;;
27313;SDS011;14800;48.174;9.798;2024-03-22T04:17:52;12.13;;;8.13;;
27313;SDS011;14800;48.174;9.798;2024-03-22T04:20:18;11.95;;;8.45;;
27313;SDS011;14800;48.174;9.798;2024-03-22T04:22:43;10.43;;;8.20;;
27313;SDS011;14800;48.174;9.798;2024-03-22T04:25:09;11.63;;;7.82;;
27313;SDS011;14800;48.174;9.798;2024-03-22T04:27:38;12.32;;;8.10;;
27313;SDS011;14800;48.174;9.798;2024-03-22T04:30:04;12.50;;;8.43;;
27313;SDS011;14800;48.174;9.798;2024-03-22T04:32:30;11.10;;;8.05;;
27313;SDS011;14800;48.174;9.798;2024-03-22T04:34:56;11.05;;;7.82;;
27313;SDS011;14800;48.174;9.798;2024-03-22T04:37:21;12.68;;;9.15;;
27313;SDS011;14800;48.174;9.798;2024-03-22T04:39:47;11.38;;;9.07;;
27313;SDS011;14800;48.174;9.798;2024-03-22T04:42:12;12.25;;;9.13;;
27313;SDS011;14800;48.174;9.798;2024-03-22T04:44:38;12.07;;;9.30;;
27313;SDS011;14800;48.174;9.798;2024-03-22T04:47:03;13.73;;;9.57;;
27313;SDS011;14800;48.174;9.798;2024-03-22T04:49:29;14.45;;;9.15;;
27313;SDS011;14800;48.174;9.798;2024-03-22T04:51:56;13.27;;;9.30;;
27313;SDS011;14800;48.174;9.798;2024-03-22T04:54:21;13.38;;;9.60;;
27313;SDS011;14800;48.174;9.798;2024-03-22T04:56:47;14.85;;;9.98;;
27313;SDS011;14800;48.174;9.798;2024-03-22T04:59:12;15.73;;;10.00;;
27313;SDS011;14800;48.174;9.798;2024-03-22T05:01:38;13.57;;;9.93;;
27313;SDS011;14800;48.174;9.798;2024-03-22T05:04:03;14.20;;;9.98;;
27313;SDS011;14800;48.174;9.798;2024-03-22T05:06:29;16.90;;;10.50;;
27313;SDS011;14800;48.174;9.798;2024-03-22T05:08:55;13.75;;;9.05;;
27313;SDS011;14800;48.174;9.798;2024-03-22T05:11:20;14.43;;;9.48;;
27313;SDS011;14800;48.174;9.798;2024-03-22T05:13:46;13.15;;;9.88;;
27313;SDS011;14800;48.174;9.798;2024-03-22T05:16:11;14.82;;;10.52;;
27313;SDS011;14800;48.174;9.798;2024-03-22T05:18:37;14.65;;;9.90;;
27313;SDS011;14800;48.174;9.798;2024-03-22T05:21:03;14.10;;;10.48;;
27313;SDS011;14800;48.174;9.798;2024-03-22T05:23:28;13.35;;;9.55;;
27313;SDS011;14800;48.174;9.798;2024-03-22T05:25:54;13.85;;;10.65;;
27313;SDS011;14800;48.174;9.798;2024-03-22T05:28:20;17.13;;;11.30;;
27313;SDS011;14800;48.174;9.798;2024-03-22T05:30:46;15.13;;;10.55;;
27313;SDS011;14800;48.174;9.798;2024-03-22T05:33:12;17.17;;;11.40;;
27313;SDS011;14800;48.174;9.798;2024-03-22T05:35:37;18.27;;;10.63;;
27313;SDS011;14800;48.174;9.798;2024-03-22T05:38:03;17.08;;;10.45;;
27313;SDS011;14800;48.174;9.798;2024-03-22T05:40:29;16.20;;;10.52;;
27313;SDS011;14800;48.174;9.798;2024-03-22T05:42:55;12.98;;;10.18;;
27313;SDS011;14800;48.174;9.798;2024-03-22T05:45:21;14.93;;;10.63;;
27313;SDS011;14800;48.174;9.798;2024-03-22T05:47:47;14.60;;;10.05;;
27313;SDS011;14800;48.174;9.798;2024-03-22T05:50:12;20.77;;;10.25;;
27313;SDS011;14800;48.174;9.798;2024-03-22T05:52:39;16.60;;;10.18;;
27313;SDS011;14800;48.174;9.798;2024-03-22T05:55:05;16.98;;;9.45;;
27313;SDS011;14800;48.174;9.798;2024-03-22T05:57:31;14.70;;;10.45;;
27313;SDS011;14800;48.174;9.798;2024-03-22T05:59:57;16.20;;;10.45;;
27313;SDS011;14800;48.174;9.798;2024-03-22T06:02:22;15.02;;;10.05;;
27313;SDS011;14800;48.174;9.798;2024-03-22T06:04:48;14.57;;;10.43;;
27313;SDS011;14800;48.174;9.798;2024-03-22T06:07:14;15.70;;;10.38;;
27313;SDS011;14800;48.174;9.798;2024-03-22T06:09:41;16.98;;;10.90;;
27313;SDS011;14800;48.174;9.798;2024-03-22T06:12:12;15.00;;;10.38;;
27313;SDS011;14800;48.174;9.798;2024-03-22T06:14:39;15.00;;;10.50;;
27313;SDS011;14800;48.174;9.798;2024-03-22T06:17:08;15.95;;;10.95;;
27313;SDS011;14800;48.174;9.798;2024-03-22T06:19:34;17.02;;;11.82;;
27313;SDS011;14800;48.174;9.798;2024-03-22T06:22:00;17.33;;;10.60;;
27313;SDS011;14800;48.174;9.798;2024-03-22T06:24:26;15.38;;;10.65;;
27313;SDS011;14800;48.174;9.798;2024-03-22T06:26:52;13.77;;;10.10;;
27313;SDS011;14800;48.174;9.798;2024-03-22T06:29:17;17.80;;;10.52;;
27313;SDS011;14800;48.174;9.798;2024-03-22T06:31:43;21.45;;;12.77;;
27313;SDS011;14800;48.174;9.798;2024-03-22T06:34:09;22.08;;;11.43;;
27313;SDS011;14800;48.174;9.798;2024-03-22T06:36:34;24.80;;;12.75;;
27313;SDS011;14800;48.174;9.798;2024-03-22T06:39:00;22.75;;;12.23;;
27313;SDS011;14800;48.174;9.798;2024-03-22T06:41:28;23.10;;;11.35;;
27313;SDS011;14800;48.174;9.798;2024-03-22T06:43:53;17.60;;;11.55;;
27313;SDS011;14800;48.174;9.798;2024-03-22T06:46:19;24.25;;;11.10;;
27313;SDS011;14800;48.174;9.798;2024-03-22T06:48:45;18.67;;;11.20;;
27313;SDS011;14800;48.174;9.798;2024-03-22T06:51:11;18.42;;;10.88;;
27313;SDS011;14800;48.174;9.798;2024-03-22T06:53:37;20.85;;;12.30;;
27313;SDS011;14800;48.174;9.798;2024-03-22T06:56:03;23.55;;;12.15;;
27313;SDS011;14800;48.174;9.798;2024-03-22T06:58:29;38.47;;;17.55;;
27313;SDS011;14800;48.174;9.798;2024-03-22T07:00:54;27.75;;;14.82;;
27313;SDS011;14800;48.174;9.798;2024-03-22T07:03:20;21.23;;;12.50;;
27313;SDS011;14800;48.174;9.798;2024-03-22T07:05:46;18.25;;;11.55;;
27313;SDS011;14800;48.174;9.798;2024-03-22T07:08:13;16.02;;;11.13;;
27313;SDS011;14800;48.174;9.798;2024-03-22T07:10:39;14.68;;;9.80;;
27313;SDS011;14800;48.174;9.798;2024-03-22T07:13:05;13.57;;;9.73;;
27313;SDS011;14800;48.174;9.798;2024-03-22T07:15:31;14.35;;;9.63;;
27313;SDS011;14800;48.174;9.798;2024-03-22T07:17:57;15.40;;;10.30;;
27313;SDS011;14800;48.174;9.798;2024-03-22T07:20:23;15.35;;;10.70;;
27313;SDS011;14800;48.174;9.798;2024-03-22T07:22:49;15.30;;;10.38;;
27313;SDS011;14800;48.174;9.798;2024-03-22T07:25:15;15.18;;;10.10;;
27313;SDS011;14800;48.174;9.798;2024-03-22T07:27:40;17.83;;;10.70;;
27313;SDS011;14800;48.174;9.798;2024-03-22T07:30:06;14.55;;;10.45;;
27313;SDS011;14800;48.174;9.798;2024-03-22T07:32:32;15.15;;;9.98;;
27313;SDS011;14800;48.174;9.798;2024-03-22T07:34:58;13.75;;;9.80;;
27313;SDS011;14800;48.174;9.798;2024-03-22T07:37:24;14.27;;;9.32;;
27313;SDS011;14800;48.174;9.798;2024-03-22T07:39:49;12.07;;;8.82;;
27313;SDS011;14800;48.174;9.798;2024-03-22T07:42:16;12.75;;;8.77;;
27313;SDS011;14800;48.174;9.798;2024-03-22T07:44:42;14.10;;;9.50;;
27313;SDS011;14800;48.174;9.798;2024-03-22T07:47:07;14.07;;;9.85;;
27313;SDS011;14800;48.174;9.798;2024-03-22T07:49:33;15.80;;;11.23;;
27313;SDS011;14800;48.174;9.798;2024-03-22T07:51:59;15.23;;;11.20;;
27313;SDS011;14800;48.174;9.798;2024-03-22T07:54:25;14.27;;;11.25;;
27313;SDS011;14800;48.174;9.798;2024-03-22T07:56:51;14.43;;;10.40;;
27313;SDS011;14800;48.174;9.798;2024-03-22T07:59:16;15.02;;;10.88;;
27313;SDS011;14800;48.174;9.798;2024-03-22T08:01:42;16.40;;;10.90;;
27313;SDS011;14800;48.174;9.798;2024-03-22T08:04:07;14.07;;;10.05;;
27313;SDS011;14800;48.174;9.798;2024-03-22T08:06:33;16.35;;;10.77;;
27313;SDS011;14800;48.174;9.798;2024-03-22T08:08:58;13.48;;;10.18;;
27313;SDS011;14800;48.174;9.798;2024-03-22T08:11:24;13.50;;;9.35;;
27313;SDS011;14800;48.174;9.798;2024-03-22T08:13:51;13.50;;;9.85;;
27313;SDS011;14800;48.174;9.798;2024-03-22T08:16:17;13.57;;;9.65;;
27313;SDS011;14800;48.174;9.798;2024-03-22T08:18:42;12.63;;;9.80;;
27313;SDS011;14800;48.174;9.798;2024-03-22T08:21:08;12.50;;;10.13;;
27313;SDS011;14800;48.174;9.798;2024-03-22T08:23:33;12.73;;;9.40;;
27313;SDS011;14800;48.174;9.798;2024-03-22T08:25:59;12.85;;;9.50;;
27313;SDS011;14800;48.174;9.798;2024-03-22T08:28:25;11.45;;;8.80;;
27313;SDS011;14800;48.174;9.798;2024-03-22T08:30:50;11.75;;;9.15;;
27313;SDS011;14800;48.174;9.798;2024-03-22T08:33:16;16.90;;;10.20;;
27313;SDS011;14800;48.174;9.798;2024-03-22T08:35:43;13.77;;;9.60;;
27313;SDS011;14800;48.174;9.798;2024-03-22T08:38:08;13.48;;;9.88;;
27313;SDS011;14800;48.174;9.798;2024-03-22T08:40:39;12.35;;;8.32;;
27313;SDS011;14800;48.174;9.798;2024-03-22T08:43:05;12.20;;;8.80;;
27313;SDS011;14800;48.174;9.798;2024-03-22T08:45:32;13.10;;;9.18;;
27313;SDS011;14800;48.174;9.798;2024-03-22T08:47:58;12.73;;;8.63;;
27313;SDS011;14800;48.174;9.798;2024-03-22T08:50:24;10.43;;;8.43;;
27313;SDS011;14800;48.174;9.798;2024-03-22T08:52:50;9.32;;;7.88;;
27313;SDS011;14800;48.174;9.798;2024-03-22T08:55:16;12.15;;;8.57;;
27313;SDS011;14800;48.174;9.798;2024-03-22T08:57:42;13.57;;;8.70;;
27313;SDS011;14800;48.174;9.798;2024-03-22T09:00:08;10.13;;;8.75;;
27313;SDS011;14800;48.174;9.798;2024-03-22T09:02:34;11.30;;;8.05;;
27313;SDS011;14800;48.174;9.798;2024-03-22T09:05:00;10.07;;;7.78;;
27313;SDS011;14800;48.174;9.798;2024-03-22T09:07:26;10.70;;;7.30;;
27313;SDS011;14800;48.174;9.798;2024-03-22T09:09:51;10.90;;;8.15;;
27313;SDS011;14800;48.174;9.798;2024-03-22T09:12:18;13.52;;;7.78;;
27313;SDS011;14800;48.174;9.798;2024-03-22T09:14:44;10.10;;;7.53;;
27313;SDS011;14800;48.174;9.798;2024-03-22T09:17:09;12.30;;;7.40;;
27313;SDS011;14800;48.174;9.798;2024-03-22T09:19:35;10.15;;;7.32;;
27313;SDS011;14800;48.174;9.798;2024-03-22T09:22:01;14.60;;;7.57;;
27313;SDS011;14800;48.174;9.798;2024-03-22T09:24:27;7.82;;;6.72;;
27313;SDS011;14800;48.174;9.798;2024-03-22T09:26:53;7.68;;;6.03;;
27313;SDS011;14800;48.174;9.798;2024-03-22T09:29:19;11.40;;;6.13;;
27313;SDS011;14800;48.174;9.798;2024-03-22T09:31:44;7.90;;;6.07;;
27313;SDS011;14800;48.174;9.798;2024-03-22T09:34:11;8.52;;;6.32;;
27313;SDS011;14800;48.174;9.798;2024-03-22T09:36:37;7.28;;;6.40;;
27313;SDS011;14800;48.174;9.798;2024-03-22T09:39:03;7.43;;;5.40;;
27313;SDS011;14800;48.174;9.798;2024-03-22T09:41:29;7.35;;;5.55;;
27313;SDS011;14800;48.174;9.798;2024-03-22T09:43:57;7.30;;;5.70;;
27313;SDS011;14800;48.174;9.798;2024-03-22T09:46:25;5.97;;;4.97;;
27313;SDS011;14800;48.174;9.798;2024-03-22T09:48:52;6.32;;;5.32;;
27313;SDS011;14800;48.174;9.798;2024-03-22T09:51:18;8.07;;;5.40;;
27313;SDS011;14800;48.174;9.798;2024-03-22T09:53:44;5.97;;;5.30;;
27313;SDS011;14800;48.174;9.798;2024-03-22T09:56:11;5.82;;;4.82;;
27313;SDS011;14800;48.174;9.798;2024-03-22T09:58:40;7.43;;;4.88;;
27313;SDS011;14800;48.174;9.798;2024-03-22T10:01:06;5.30;;;4.80;;
27313;SDS011;14800;48.174;9.798;2024-03-22T10:03:32;5.93;;;4.32;;
27313;SDS011;14800;48.174;9.798;2024-03-22T10:05:58;5.38;;;3.97;;
27313;SDS011;14800;48.174;9.798;2024-03-22T10:08:24;5.22;;;4.13;;
27313;SDS011;14800;48.174;9.798;2024-03-22T10:10:49;7.07;;;4.18;;
27313;SDS011;14800;48.174;9.798;2024-03-22T10:13:15;4.57;;;3.90;;
27313;SDS011;14800;48.174;9.798;2024-03-22T10:15:41;5.88;;;3.50;;
27313;SDS011;14800;48.174;9.798;2024-03-22T10:18:06;4.20;;;3.80;;
27313;SDS011;14800;48.174;9.798;2024-03-22T10:20:33;4.15;;;3.45;;
27313;SDS011;14800;48.174;9.798;2024-03-22T10:22:59;4.03;;;3.22;;
27313;SDS011;14800;48.174;9.798;2024-03-22T10:25:28;4.70;;;3.67;;
27313;SDS011;14800;48.174;9.798;2024-03-22T10:27:54;3.03;;;2.50;;
27313;SDS011;14800;48.174;9.798;2024-03-22T10:30:20;3.33;;;2.85;;
27313;SDS011;14800;48.174;9.798;2024-03-22T10:32:48;4.40;;;3.20;;
27313;SDS011;14800;48.174;9.798;2024-03-22T10:35:14;4.05;;;2.88;;
27313;SDS011;14800;48.174;9.798;2024-03-22T10:37:41;3.30;;;2.50;;
27313;SDS011;14800;48.174;9.798;2024-03-22T10:40:07;3.58;;;2.15;;
27313;SDS011;14800;48.174;9.798;2024-03-22T10:42:40;3.60;;;2.53;;
27313;SDS011;14800;48.174;9.798;2024-03-22T10:45:08;5.20;;;2.50;;
27313;SDS011;14800;48.174;9.798;2024-03-22T10:47:35;3.05;;;2.72;;
27313;SDS011;14800;48.174;9.798;2024-03-22T10:50:08;3.25;;;2.40;;
27313;SDS011;14800;48.174;9.798;2024-03-22T10:52:39;3.95;;;2.55;;
27313;SDS011;14800;48.174;9.798;2024-03-22T10:55:54;3.78;;;2.38;;
27313;SDS011;14800;48.174;9.798;2024-03-22T10:58:04;2.42;;;2.22;;
27313;SDS011;14800;48.174;9.798;2024-03-22T11:00:31;2.65;;;2.45;;
27313;SDS011;14800;48.174;9.798;2024-03-22T11:02:58;2.97;;;2.60;;
27313;SDS011;14800;48.174;9.798;2024-03-22T11:05:25;3.30;;;2.60;;
27313;SDS011;14800;48.174;9.798;2024-03-22T11:08:01;3.40;;;2.83;;
27313;SDS011;14800;48.174;9.798;2024-03-22T11:10:29;3.20;;;2.65;;
27313;SDS011;14800;48.174;9.798;2024-03-22T11:13:05;2.95;;;2.75;;
27313;SDS011;14800;48.174;9.798;2024-03-22T11:15:32;4.35;;;3.15;;
27313;SDS011;14800;48.174;9.798;2024-03-22T11:17:58;4.45;;;3.20;;
27313;SDS011;14800;48.174;9.798;2024-03-22T11:20:25;4.78;;;2.70;;
27313;SDS011;14800;48.174;9.798;2024-03-22T11:22:51;3.33;;;2.55;;
27313;SDS011;14800;48.174;9.798;2024-03-22T11:25:17;3.20;;;2.40;;
27313;SDS011;14800;48.174;9.798;2024-03-22T11:27:44;2.88;;;1.90;;
27313;SDS011;14800;48.174;9.798;2024-03-22T11:30:09;2.58;;;2.08;;
27313;SDS011;14800;48.174;9.798;2024-03-22T11:32:35;2.83;;;1.80;;
27313;SDS011;14800;48.174;9.798;2024-03-22T11:35:07;2.60;;;1.90;;
27313;SDS011;14800;48.174;9.798;2024-03-22T11:37:36;1.73;;;1.63;;
27313;SDS011;14800;48.174;9.798;2024-03-22T11:40:06;2.35;;;1.60;;
27313;SDS011;14800;48.174;9.798;2024-03-22T11:42:35;2.20;;;1.15;;
27313;SDS011;14800;48.174;9.798;2024-03-22T11:45:02;1.85;;;1.65;;
27313;SDS011;14800;48.174;9.798;2024-03-22T11:47:28;1.63;;;1.50;;
27313;SDS011;14800;48.174;9.798;2024-03-22T11:49:53;3.72;;;1.38;;
27313;SDS011;14800;48.174;9.798;2024-03-22T11:52:26;2.30;;;1.27;;
27313;SDS011;14800;48.174;9.798;2024-03-22T11:54:52;4.03;;;1.60;;
27313;SDS011;14800;48.174;9.798;2024-03-22T11:57:18;7.30;;;1.55;;
27313;SDS011;14800;48.174;9.798;2024-03-22T11:59:46;1.75;;;1.52;;
27313;SDS011;14800;48.174;9.798;2024-03-22T12:02:12;2.38;;;1.60;;
27313;SDS011;14800;48.174;9.798;2024-03-22T12:04:41;1.40;;;1.30;;
27313;SDS011;14800;48.174;9.798;2024-03-22T12:07:15;2.22;;;1.40;;
27313;SDS011;14800;48.174;9.798;2024-03-22T12:09:41;1.98;;;1.40;;
27313;SDS011;14800;48.174;9.798;2024-03-22T12:12:07;1.80;;;1.67;;
27313;SDS011;14800;48.174;9.798;2024-03-22T12:14:34;2.30;;;1.40;;
27313;SDS011;14800;48.174;9.798;2024-03-22T12:17:01;2.10;;;1.42;;
27313;SDS011;14800;48.174;9.798;2024-03-22T12:19:27;3.72;;;1.60;;
27313;SDS011;14800;48.174;9.798;2024-03-22T12:21:53;3.03;;;1.52;;
27313;SDS011;14800;48.174;9.798;2024-03-22T12:24:19;2.40;;;1.40;;
27313;SDS011;14800;48.174;9.798;2024-03-22T12:26:44;4.07;;;1.58;;
27313;SDS011;14800;48.174;9.798;2024-03-22T12:29:12;2.50;;;1.50;;
27313;SDS011;14800;48.174;9.798;2024-03-22T12:31:38;3.72;;;1.40;;
27313;SDS011;14800;48.174;9.798;2024-03-22T12:34:03;2.42;;;1.40;;
27313;SDS011;14800;48.174;9.798;2024-03-22T12:36:29;1.83;;;1.10;;
27313;SDS011;14800;48.174;9.798;2024-03-22T12:38:54;2.53;;;1.55;;
27313;SDS011;14800;48.174;9.798;2024-03-22T12:41:20;2.42;;;1.27;;
27313;SDS011;14800;48.174;9.798;2024-03-22T12:43:46;2.83;;;1.48;;
27313;SDS011;14800;48.174;9.798;2024-03-22T12:46:11;5.72;;;1.60;;
27313;SDS011;14800;48.174;9.798;2024-03-22T12:48:37;3.70;;;1.70;;
27313;SDS011;14800;48.174;9.798;2024-03-22T12:51:02;2.00;;;1.70;;
27313;SDS011;14800;48.174;9.798;2024-03-22T12:53:28;1.80;;;1.63;;
27313;SDS011;14800;48.174;9.798;2024-03-22T12:55:54;2.05;;;1.60;;
27313;SDS011;14800;48.174;9.798;2024-03-22T12:58:19;1.38;;;1.10;;
27313;SDS011;14800;48.174;9.798;2024-03-22T13:00:45;1.90;;;1.38;;
27313;SDS011;14800;48.174;9.798;2024-03-22T13:03:12;1.83;;;1.33;;
27313;SDS011;14800;48.174;9.798;2024-03-22T13:05:40;2.25;;;1.00;;
27313;SDS011;14800;48.174;9.798;2024-03-22T13:08:06;1.98;;;1.27;;
27313;SDS011;14800;48.174;9.798;2024-03-22T13:10:32;2.33;;;1.40;;
27313;SDS011;14800;48.174;9.798;2024-03-22T13:12:58;1.40;;;1.20;;
27313;SDS011;14800;48.174;9.798;2024-03-22T13:15:23;4.22;;;1.60;;
27313;SDS011;14800;48.174;9.798;2024-03-22T13:17:50;2.30;;;1.40;;
27313;SDS011;14800;48.174;9.798;2024-03-22T13:20:17;2.47;;;1.60;;
27313;SDS011;14800;48.174;9.798;2024-03-22T13:22:43;3.30;;;1.40;;
27313;SDS011;14800;48.174;9.798;2024-03-22T13:25:09;2.75;;;1.50;;
27313;SDS011;14800;48.174;9.798;2024-03-22T13:27:36;2.10;;;1.30;;
27313;SDS011;14800;48.174;9.798;2024-03-22T13:30:04;6.07;;;1.23;;
27313;SDS011;14800;48.174;9.798;2024-03-22T13:32:34;2.80;;;1.38;;
27313;SDS011;14800;48.174;9.798;2024-03-22T13:35:04;3.15;;;1.42;;
27313;SDS011;14800;48.174;9.798;2024-03-22T13:37:30;1.33;;;1.23;;
27313;SDS011;14800;48.174;9.798;2024-03-22T13:39:56;3.67;;;1.10;;
27313;SDS011;14800;48.174;9.798;2024-03-22T13:42:21;1.38;;;1.10;;
27313;SDS011;14800;48.174;9.798;2024-03-22T13:44:47;10.00;;;1.63;;
27313;SDS011;14800;48.174;9.798;2024-03-22T13:47:12;2.63;;;1.50;;
27313;SDS011;14800;48.174;9.798;2024-03-22T13:49:38;2.53;;;1.48;;
27313;SDS011;14800;48.174;9.798;2024-03-22T13:52:06;1.77;;;1.30;;
27313;SDS011;14800;48.174;9.798;2024-03-22T13:54:32;1.65;;;1.25;;
27313;SDS011;14800;48.174;9.798;2024-03-22T13:56:58;3.03;;;1.80;;
27313;SDS011;14800;48.174;9.798;2024-03-22T13:59:23;6.72;;;1.70;;
27313;SDS011;14800;48.174;9.798;2024-03-22T14:01:49;1.90;;;1.67;;
27313;SDS011;14800;48.174;9.798;2024-03-22T14:04:15;2.15;;;1.50;;
27313;SDS011;14800;48.174;9.798;2024-03-22T14:06:40;2.25;;;1.48;;
27313;SDS011;14800;48.174;9.798;2024-03-22T14:09:07;3.15;;;1.30;;
27313;SDS011;14800;48.174;9.798;2024-03-22T14:11:35;2.53;;;1.55;;
27313;SDS011;14800;48.174;9.798;2024-03-22T14:14:01;3.72;;;1.50;;
27313;SDS011;14800;48.174;9.798;2024-03-22T14:16:27;2.75;;;1.60;;
27313;SDS011;14800;48.174;9.798;2024-03-22T14:18:52;2.20;;;1.38;;
27313;SDS011;14800;48.174;9.798;2024-03-22T14:21:18;5.13;;;1.60;;
27313;SDS011;14800;48.174;9.798;2024-03-22T14:23:45;2.20;;;1.17;;
27313;SDS011;14800;48.174;9.798;2024-03-22T14:26:12;2.72;;;1.30;;
27313;SDS011;14800;48.174;9.798;2024-03-22T14:28:37;1.67;;;1.48;;